• Join FlightAware (Why Join?)
  • Login
  • US Flag 
06:07AM EDT


 

Airport Tracker/Info


-or-


 

Live Flight TrackerFlight Track Log ✈ AAL1870 ✈ 29-Apr-2013 ✈ KLAX - KORD

Flight Track Log - Related Links

Times and Time Zones

All times are in EDT time to prevent confusion due to time zone crossing. See the AAL1870 flight status page for this flight to view local times or setup timezone preferences in your user account.

Time Position Orientation Groundspeed Altitude Reporting Facility
EDT Latitude Longitude Course Direction KTS MPH feet Rate Location/Type
01:55AM 41.6928 -90.2720 62° Northeast  Level Estimated
01:56AM 41.7141 -90.1112 80° East  Level Estimated
01:57AM 41.7351 -89.9503 80° East  Level Estimated
01:58AM 41.7559 -89.7892 80° East  Level Estimated
01:59AM 41.7765 -89.6281 80° East  Level Estimated
02:00AM 41.7969 -89.4668 80° East  Level Estimated
02:01AM 41.8170 -89.3055 80° East  Level Estimated
02:02AM 41.8369 -89.1440 81° East  Level Estimated
02:03AM 41.8566 -88.9825 81° East  Level Estimated
02:04AM 41.8761 -88.8208 81° East  Level Estimated
02:05AM 41.8953 -88.6591 81° East  Level Estimated
02:06AM 41.9143 -88.4972 81° East  Level Estimated
02:06AM 41.5850 -88.5211 217° Southwest 378 435 10,900  Level Chicago Center
02:07AM 41.9331 -88.3353 81° East  Level Estimated
02:07AM 41.6444 -88.4047 56° Northeast 378 435 11,000  Level Chicago Center
02:08AM 41.9516 -88.1732 81° East  Level Estimated
02:08AM 41.7200 -88.3264 38° Northeast 343 395 10,800  Level Chicago Center
02:09AM 41.9700 -88.0111 81° East  Level Estimated
02:09AM 41.8025 -88.2875 19° North 315 362 9,300  Level Chicago Center
02:10AM 41.9817 -87.9067 81° East  Level Estimated
02:10AM 41.8811 -88.2500 20° North 301 346 7,800  Level Chicago Center
02:11AM 41.9817 -87.9067 217° Southwest  Level Estimated
02:11AM 41.9592 -88.2128 20° North 296 341 6,200  Level Chicago Center
02:12AM 41.9817 -87.9067 217° Southwest  Level Estimated
02:12AM 42.0392 -88.1928 11° North 299 344 4,000  Level Chicago Center
02:13AM 42.1139 -88.1717 12° North 295 339 2,900 -780 Descending Chicago Center
02:14AM 42.1119 -88.1014 92° East 232 267 2,500 -300 Descending Chicago Center
02:15AM 42.1000 -88.0667 115° Southeast 192 221 2,500  Level Chicago TRACON